Flight Track Log - Related Links

Times and Time Zones

All times are in EDT time to prevent confusion due to time zone crossing. See the ASQ5181 flight status page for this flight to view local times or setup timezone preferences in your user account.

Time Position Orientation Groundspeed Altitude Reporting Facility
EDT Latitude Longitude Course Direction KTS MPH feet Rate Location/Type
Tue 12:24:05 PM 33.6333 -84.3833 90° East 165 190 2,300  Level Atlanta TRACON
Tue 12:25:05 PM 33.6333 -84.3167 90° East 253 291 3,600 2,050 Climbing Atlanta TRACON
Tue 12:26:05 PM 33.6333 -84.2333 90° East 262 302 6,400 2,438 Climbing Atlanta TRACON
Tue 12:27:45 PM 33.6522 -84.0789 82° East 275 316 10,100 1,800 Climbing Atlanta Center
Tue 12:28:45 PM 33.7128 -83.9989 48° Northeast 290 334 11,200 1,350 Climbing Atlanta Center
Tue 12:29:45 PM 33.7753 -83.9164 48° Northeast 330 380 12,800 1,650 Climbing Atlanta Center
Tue 12:30:45 PM 33.8419 -83.8311 47° Northeast 342 394 14,500 1,350 Climbing Atlanta Center
Tue 12:31:45 PM 33.9025 -83.7508 48° Northeast 347 399 15,500 1,150 Climbing Atlanta Center
Tue 12:32:45 PM 33.9689 -83.6556 50° Northeast 352 405 16,800 1,050 Climbing Atlanta Center
Tue 12:33:45 PM 34.0333 -83.5525 53° Northeast 375 432 17,600 650 Climbing Atlanta Center
Tue 12:34:45 PM 34.0997 -83.4467 53° Northeast 388 447 18,100 650 Climbing Atlanta Center
Tue 12:35:45 PM 34.1681 -83.3408 52° Northeast 396 456 18,900 800 Climbing Atlanta Center
Tue 12:36:45 PM 34.2342 -83.2297 54° Northeast 396 456 19,700 800 Climbing Atlanta Center
Tue 12:37:45 PM 34.3022 -83.1208 53° Northeast 396 456 20,500 850 Climbing Atlanta Center
Tue 12:38:45 PM 34.3764 -83.0044 52° Northeast 401 461 21,400 800 Climbing Atlanta Center
Tue 12:39:45 PM 34.4442 -82.8928 54° Northeast 401 461 22,100 700 Climbing Atlanta Center
Tue 12:40:45 PM 34.5100 -82.7833 54° Northeast 401 461 22,800 700 Climbing Atlanta Center
Tue 12:41:45 PM 34.5778 -82.6739 53° Northeast 401 461 23,500 700 Climbing Atlanta Center
Tue 12:42:45 PM 34.6475 -82.5667 52° Northeast 407 468 24,200 650 Climbing Atlanta Center
Tue 12:43:45 PM 34.7128 -82.4569 54° Northeast 407 468 24,800 550 Climbing Atlanta Center
Tue 12:44:45 PM 34.7803 -82.3469 53° Northeast 402 463 25,300 500 Climbing Atlanta Center
Tue 12:45:45 PM 34.8475 -82.2342 54° Northeast 407 468 25,800 450 Climbing Atlanta Center
Tue 12:46:45 PM 34.9025 -82.1469 52° Northeast 407 468 26,200 500 Climbing Atlanta Center
Tue 12:47:45 PM 34.9839 -82.0106 54° Northeast 412 474 26,800 400 Climbing Atlanta Center
Tue 12:48:45 PM 35.0656 -81.9122 45° Northeast 412 474 27,000 100 Climbing Atlanta Center
Tue 12:49:45 PM 35.1731 -81.8486 26° Northeast 412 474 27,000  Level Atlanta Center
Tue 12:50:45 PM 35.2867 -81.7844 25° Northeast 418 481 27,000  Level Atlanta Center
Tue 12:51:45 PM 35.3981 -81.7228 24° Northeast 430 495 27,000  Level Atlanta Center
Tue 12:52:45 PM 35.5033 -81.6611 25° Northeast 430 495 27,000  Level Atlanta Center
Tue 12:53:45 PM 35.6083 -81.5994 26° Northeast 424 488 27,000  Level Atlanta Center
Tue 12:54:45 PM 35.7014 -81.5481 24° Northeast 417 480 27,000  Level Atlanta Center
Tue 12:55:45 PM 35.8022 -81.4833 27° Northeast 412 474 27,000  Level Atlanta Center
Tue 12:56:45 PM 35.9031 -81.4239 26° Northeast 404 465 27,000  Level Atlanta Center
Tue 12:57:45 PM 36.0125 -81.3614 25° Northeast 398 458 27,000  Level Atlanta Center
Tue 12:58:45 PM 36.1133 -81.3014 26° Northeast 393 452 27,000 -300 Level Atlanta Center
Tue 12:59:45 PM 36.2100 -81.2417 26° Northeast 393 452 26,400 -800 Descending Atlanta Center
Tue 01:00:45 PM 36.3067 -81.1842 26° Northeast 393 452 25,400 -1,000 Descending Atlanta Center
Tue 01:01:45 PM 36.4033 -81.1264 26° Northeast 386 444 24,400 -1,400 Descending Atlanta Center
Tue 01:02:45 PM 36.5000 -81.0661 27° Northeast 381 438 22,600 -1,850 Descending Atlanta Center
Tue 01:03:45 PM 36.5925 -81.0111 26° Northeast 375 432 20,700 -1,800 Descending Atlanta Center
Tue 01:04:45 PM 36.6828 -80.9558 26° Northeast 362 417 19,000 -1,550 Descending Atlanta Center
Tue 01:05:45 PM 36.7631 -80.9111 24° Northeast 334 384 17,600 -1,500 Descending Atlanta Center
Tue 01:06:45 PM 36.8469 -80.8586 27° Northeast 329 379 16,000 -1,550 Descending Atlanta Center
Tue 01:07:45 PM 36.9250 -80.8114 26° Northeast 318 366 14,500 -1,500 Descending Atlanta Center
Tue 01:09:00 PM 37.0332 -80.7301 26° Northeast  Level FlightAware Approximate
Tue 01:16:00 PM 37.3131 -79.9775 67° East  Level FlightAware Approximate
Tue 01:17:00 PM 37.3167 -79.9667 67° East  Level FlightAware Approximate
Tue 01:18:00 PM 37.3255 -79.9754 67° East  Level Estimated
Tue 01:19:00 PM 37.3255 -79.9754 67° East  Level Estimated
Tue 01:20:00 PM 37.3255 -79.9754 67° East  Level Estimated

Login

Don't have an account? Register now (free) for customized features, flight alerts, and more!